createdAt,value
2023-02-12T00:00:06.271Z,13.30
2023-02-12T00:01:06.262Z,11.70
2023-02-12T00:02:06.257Z,13.30
2023-02-12T00:03:06.208Z,11.70
2023-02-12T00:04:06.173Z,13.80
2023-02-12T00:05:06.203Z,11.00
2023-02-12T00:06:06.260Z,10.40
2023-02-12T00:07:06.151Z,12.10
2023-02-12T00:08:06.120Z,13.30
2023-02-12T00:09:06.113Z,9.80
2023-02-12T00:10:06.094Z,12.20
2023-02-12T00:11:06.080Z,12.40
2023-02-12T00:12:06.120Z,12.60
2023-02-12T00:13:06.059Z,12.00
2023-02-12T00:14:06.028Z,13.10
2023-02-12T00:15:06.034Z,11.40
2023-02-12T00:16:06.109Z,13.40
2023-02-12T00:17:06.041Z,11.30
2023-02-12T00:18:06.036Z,13.20
2023-02-12T00:19:05.969Z,14.10
2023-02-12T00:20:05.971Z,13.50
2023-02-12T00:21:05.977Z,12.00
2023-02-12T00:22:05.958Z,11.70
2023-02-12T00:23:05.962Z,13.10
2023-02-12T00:24:05.935Z,13.30
2023-02-12T00:25:05.913Z,13.00
2023-02-12T00:26:05.911Z,11.60
2023-02-12T00:27:05.888Z,12.70
2023-02-12T00:28:05.904Z,11.60
2023-02-12T00:29:05.861Z,13.30
2023-02-12T00:30:05.858Z,13.30
2023-02-12T00:31:05.930Z,12.40
2023-02-12T00:32:05.808Z,14.20
2023-02-12T00:33:05.813Z,12.60
2023-02-12T00:34:05.813Z,14.10
2023-02-12T00:35:05.798Z,13.70
2023-02-12T00:36:05.781Z,13.30
2023-02-12T00:37:05.726Z,12.90
2023-02-12T00:38:05.775Z,13.10
2023-02-12T00:39:05.725Z,15.40
2023-02-12T00:40:05.723Z,12.40
2023-02-12T00:41:05.679Z,13.30
2023-02-12T00:42:06.689Z,12.60
2023-02-12T00:43:06.373Z,12.40
2023-02-12T00:44:07.806Z,14.00
2023-02-12T00:45:05.658Z,13.20
2023-02-12T00:46:05.664Z,14.40
2023-02-12T00:47:05.624Z,13.80
2023-02-12T00:48:05.627Z,13.60
2023-02-12T00:49:05.582Z,15.70
2023-02-12T00:50:05.718Z,13.80
2023-02-12T00:51:05.583Z,13.10
2023-02-12T00:52:05.537Z,14.00
2023-02-12T00:53:05.510Z,15.10
2023-02-12T00:54:05.542Z,15.80
2023-02-12T00:55:05.532Z,14.50
2023-02-12T00:56:05.508Z,14.40
2023-02-12T00:57:05.472Z,13.50
2023-02-12T00:58:05.461Z,14.00
2023-02-12T00:59:05.500Z,15.50
2023-02-12T01:00:05.456Z,13.70
2023-02-12T01:01:05.602Z,14.60
2023-02-12T01:02:05.450Z,14.10
2023-02-12T01:03:05.450Z,13.10
2023-02-12T01:04:05.380Z,15.00
2023-02-12T01:05:05.457Z,14.40
2023-02-12T01:06:05.429Z,14.50
2023-02-12T01:07:05.338Z,15.00
2023-02-12T01:08:05.341Z,13.00
2023-02-12T01:09:05.310Z,10.70
2023-02-12T01:10:05.331Z,15.00
2023-02-12T01:11:05.316Z,14.40
2023-02-12T01:12:05.326Z,12.70
2023-02-12T01:13:05.456Z,14.00
2023-02-12T01:14:05.263Z,15.90
2023-02-12T01:15:05.251Z,13.00
2023-02-12T01:16:05.251Z,14.70
2023-02-12T01:17:05.222Z,12.30
2023-02-12T01:18:05.233Z,14.40
2023-02-12T01:19:05.222Z,13.20
2023-02-12T01:20:05.159Z,12.50
2023-02-12T01:21:05.157Z,13.90
2023-02-12T01:22:05.154Z,13.90
2023-02-12T01:23:05.140Z,13.80
2023-02-12T01:24:05.175Z,13.80
2023-02-12T01:25:05.118Z,13.60
2023-02-12T01:26:05.091Z,13.30
2023-02-12T01:27:05.087Z,13.60
2023-02-12T01:28:05.091Z,17.10
2023-02-12T01:29:05.075Z,13.40
2023-02-12T01:30:05.086Z,12.40
2023-02-12T01:31:05.156Z,15.90
2023-02-12T01:32:05.118Z,14.60
2023-02-12T01:33:04.998Z,14.30
2023-02-12T01:34:04.978Z,12.90
2023-02-12T01:35:05.006Z,15.00
2023-02-12T01:36:05.009Z,13.40
2023-02-12T01:37:04.932Z,14.10
2023-02-12T01:38:04.947Z,11.80
2023-02-12T01:39:04.929Z,13.80
2023-02-12T01:40:04.909Z,14.50
2023-02-12T01:41:04.918Z,14.30
2023-02-12T01:42:04.896Z,16.00
2023-02-12T01:43:04.872Z,14.80
2023-02-12T01:44:04.867Z,13.10
2023-02-12T01:45:04.851Z,16.50
2023-02-12T01:46:04.873Z,15.60
2023-02-12T01:47:04.819Z,14.80
2023-02-12T01:48:04.797Z,17.40
2023-02-12T01:49:04.777Z,15.80
2023-02-12T01:50:04.806Z,17.00
2023-02-12T01:51:04.804Z,13.80
2023-02-12T01:52:04.775Z,14.60
2023-02-12T01:53:04.758Z,16.40
2023-02-12T01:54:04.728Z,15.90
2023-02-12T01:55:04.716Z,14.00
2023-02-12T01:56:04.697Z,13.60
2023-02-12T01:57:04.698Z,14.10
2023-02-12T01:58:04.670Z,14.30
2023-02-12T01:59:04.651Z,15.30
2023-02-12T02:00:04.663Z,11.80
2023-02-12T02:01:04.629Z,14.30
2023-02-12T02:02:04.729Z,13.10
2023-02-12T02:03:04.771Z,14.40
2023-02-12T02:04:04.592Z,13.70
2023-02-12T02:05:04.573Z,15.80
2023-02-12T02:06:04.612Z,15.40
2023-02-12T02:07:04.545Z,15.00
2023-02-12T02:08:04.604Z,12.50
2023-02-12T02:09:04.539Z,11.90
2023-02-12T02:10:04.506Z,13.60
2023-02-12T02:11:04.514Z,14.60
2023-02-12T02:12:04.765Z,15.50
2023-02-12T02:13:04.464Z,12.50
2023-02-12T02:14:04.455Z,13.50
2023-02-12T02:15:04.494Z,15.00
2023-02-12T02:16:04.464Z,13.60
2023-02-12T02:17:04.424Z,14.50
2023-02-12T02:18:04.444Z,12.70
2023-02-12T02:19:04.409Z,15.60
2023-02-12T02:20:04.365Z,14.10
2023-02-12T02:21:04.361Z,14.40
2023-02-12T02:22:04.362Z,14.10
2023-02-12T02:23:04.347Z,16.60
2023-02-12T02:24:04.340Z,13.40
2023-02-12T02:25:04.310Z,13.40
2023-02-12T02:26:04.282Z,15.80
2023-02-12T02:27:04.275Z,17.70
2023-02-12T02:28:04.303Z,16.70
2023-02-12T02:29:04.262Z,14.60
2023-02-12T02:30:04.260Z,16.00
2023-02-12T02:31:04.380Z,14.50
2023-02-12T02:32:04.263Z,14.60
2023-02-12T02:33:04.198Z,14.00
2023-02-12T02:34:04.179Z,12.90
2023-02-12T02:35:04.199Z,14.60
2023-02-12T02:36:04.220Z,15.80
2023-02-12T02:37:04.138Z,14.70
2023-02-12T02:38:04.121Z,16.80
2023-02-12T02:39:04.130Z,16.00
2023-02-12T02:40:04.127Z,14.80
2023-02-12T02:41:04.080Z,14.40
2023-02-12T02:42:04.114Z,15.20
2023-02-12T02:43:04.059Z,14.60
2023-02-12T02:44:04.109Z,15.70
2023-02-12T02:45:04.058Z,15.90
2023-02-12T02:46:04.020Z,15.70
2023-02-12T02:47:04.079Z,14.00
2023-02-12T02:48:04.016Z,15.00
2023-02-12T02:49:03.980Z,16.70
2023-02-12T02:50:04.000Z,13.90
2023-02-12T02:51:03.988Z,14.50
2023-02-12T02:52:03.930Z,16.30
2023-02-12T02:53:03.951Z,15.50
2023-02-12T02:54:03.950Z,15.80
2023-02-12T02:55:03.911Z,15.50
2023-02-12T02:56:03.908Z,15.10
2023-02-12T02:57:03.911Z,16.00
2023-02-12T02:58:03.867Z,15.80
2023-02-12T02:59:03.891Z,16.20
2023-02-12T03:00:03.857Z,15.50
2023-02-12T03:01:03.956Z,15.40
2023-02-12T03:02:03.826Z,15.10
2023-02-12T03:03:03.880Z,14.30
2023-02-12T03:04:03.778Z,14.50
2023-02-12T03:05:03.780Z,14.10
2023-02-12T03:06:03.783Z,17.90
2023-02-12T03:07:03.754Z,16.70
2023-02-12T03:08:03.751Z,15.90
2023-02-12T03:09:03.764Z,16.70
2023-02-12T03:10:03.758Z,15.40
2023-02-12T03:11:03.681Z,16.30
2023-02-12T03:12:03.757Z,14.90
2023-02-12T03:13:03.722Z,16.40
2023-02-12T03:14:03.661Z,18.70
2023-02-12T03:15:03.653Z,16.60
2023-02-12T03:16:03.648Z,17.70
2023-02-12T03:17:03.620Z,17.40
2023-02-12T03:18:03.630Z,17.50
2023-02-12T03:19:03.634Z,15.40
2023-02-12T03:20:03.568Z,13.40
2023-02-12T03:21:03.551Z,17.00
2023-02-12T03:22:03.580Z,15.80
2023-02-12T03:23:03.576Z,14.90
2023-02-12T03:24:03.523Z,16.20
2023-02-12T03:25:03.593Z,15.20
2023-02-12T03:26:03.497Z,16.40
2023-02-12T03:27:03.469Z,16.70
2023-02-12T03:28:03.502Z,16.40
2023-02-12T03:29:03.546Z,15.00
2023-02-12T03:30:03.456Z,16.00
2023-02-12T03:31:03.464Z,19.40
2023-02-12T03:32:03.417Z,17.30
2023-02-12T03:33:03.602Z,15.50
2023-02-12T03:34:03.468Z,15.60
2023-02-12T03:35:03.403Z,16.70
2023-02-12T03:36:03.369Z,15.80
2023-02-12T03:37:03.343Z,15.10
2023-02-12T03:38:03.353Z,16.00
2023-02-12T03:39:03.353Z,15.70
2023-02-12T03:40:03.322Z,15.80
2023-02-12T03:41:03.305Z,15.40
2023-02-12T03:42:03.319Z,17.70
2023-02-12T03:43:03.267Z,17.80
2023-02-12T03:44:03.282Z,17.30
2023-02-12T03:45:03.280Z,16.40
2023-02-12T03:46:03.301Z,17.70
2023-02-12T03:47:03.281Z,19.20
2023-02-12T03:48:03.224Z,16.40
2023-02-12T03:49:03.267Z,16.10
2023-02-12T03:50:03.215Z,18.00
2023-02-12T03:51:03.245Z,15.80
2023-02-12T03:52:03.164Z,16.50
2023-02-12T03:53:03.163Z,16.20
2023-02-12T03:54:03.151Z,16.40
2023-02-12T03:55:03.154Z,18.50
2023-02-12T03:56:03.101Z,17.80
2023-02-12T03:57:03.115Z,15.50
2023-02-12T03:58:03.079Z,16.70
2023-02-12T03:59:03.055Z,17.30
2023-02-12T04:00:03.043Z,17.10
2023-02-12T04:01:03.111Z,16.60
2023-02-12T04:02:03.108Z,13.00
2023-02-12T04:03:02.984Z,16.40
2023-02-12T04:04:03.005Z,14.80
2023-02-12T04:05:03.008Z,17.00
2023-02-12T04:06:02.975Z,19.80
2023-02-12T04:07:02.943Z,17.10
2023-02-12T04:08:02.914Z,16.40
2023-02-12T04:09:02.927Z,15.50
2023-02-12T04:10:02.920Z,15.60
2023-02-12T04:11:02.900Z,17.60
2023-02-12T04:12:02.913Z,17.20
2023-02-12T04:13:02.882Z,14.20
2023-02-12T04:14:02.870Z,17.70
2023-02-12T04:15:02.833Z,17.30
2023-02-12T04:16:02.820Z,17.60
2023-02-12T04:17:02.861Z,14.20
2023-02-12T04:18:02.890Z,14.50
2023-02-12T04:19:02.820Z,18.70
2023-02-12T04:20:02.767Z,16.50
2023-02-12T04:21:02.808Z,16.00
2023-02-12T04:22:02.732Z,17.90
2023-02-12T04:23:02.757Z,16.00
2023-02-12T04:24:02.734Z,14.90
2023-02-12T04:25:02.724Z,16.80
2023-02-12T04:26:02.674Z,19.00
2023-02-12T04:27:02.671Z,15.70
2023-02-12T04:28:02.717Z,14.10
2023-02-12T04:29:02.667Z,13.40
2023-02-12T04:30:02.654Z,14.70
2023-02-12T04:31:02.687Z,16.40
2023-02-12T04:32:02.598Z,15.20
2023-02-12T04:33:02.589Z,15.20
2023-02-12T04:34:02.588Z,14.10
2023-02-12T04:35:02.576Z,16.60
2023-02-12T04:36:02.596Z,15.20
2023-02-12T04:37:02.562Z,16.00
2023-02-12T04:38:02.517Z,14.80
2023-02-12T04:39:02.510Z,15.90
2023-02-12T04:40:02.553Z,14.70
2023-02-12T04:41:02.517Z,18.20
2023-02-12T04:42:02.491Z,16.20
2023-02-12T04:43:02.483Z,14.20
2023-02-12T04:44:02.461Z,13.70
2023-02-12T04:45:02.479Z,16.00
2023-02-12T04:46:02.453Z,14.40
2023-02-12T04:47:02.415Z,20.10
2023-02-12T04:48:02.471Z,16.60
2023-02-12T04:49:02.400Z,15.50
2023-02-12T04:50:02.366Z,16.60
2023-02-12T04:51:02.354Z,15.10
2023-02-12T04:52:02.359Z,15.30
2023-02-12T04:53:02.351Z,13.90
2023-02-12T04:54:02.327Z,16.30
2023-02-12T04:55:02.358Z,16.60
2023-02-12T04:56:02.347Z,14.60
2023-02-12T04:57:02.298Z,15.50
2023-02-12T04:58:02.295Z,13.80
2023-02-12T04:59:02.257Z,16.20
2023-02-12T05:00:02.263Z,15.80
2023-02-12T05:01:02.286Z,14.90
2023-02-12T05:02:02.206Z,15.10
2023-02-12T05:03:02.215Z,14.30
2023-02-12T05:04:02.203Z,14.90
2023-02-12T05:05:02.255Z,17.00
2023-02-12T05:06:02.181Z,15.80
2023-02-12T05:07:02.149Z,14.00
2023-02-12T05:08:02.165Z,18.20
2023-02-12T05:09:02.140Z,15.60
2023-02-12T05:10:02.132Z,16.70
2023-02-12T05:11:02.078Z,15.30
2023-02-12T05:12:02.480Z,15.80
2023-02-12T05:13:02.095Z,17.30
2023-02-12T05:14:02.072Z,16.10
2023-02-12T05:15:02.084Z,18.10
2023-02-12T05:16:02.055Z,15.80
2023-02-12T05:17:02.013Z,16.60
2023-02-12T05:18:02.007Z,17.30
2023-02-12T05:19:01.993Z,16.10
2023-02-12T05:20:01.979Z,18.10
2023-02-12T05:21:01.969Z,15.00
2023-02-12T05:22:01.970Z,13.80
2023-02-12T05:23:01.918Z,17.50
2023-02-12T05:24:01.930Z,13.80
2023-02-12T05:25:01.899Z,15.80
2023-02-12T05:26:01.913Z,13.10
2023-02-12T05:27:01.876Z,17.10
2023-02-12T05:28:01.924Z,13.30
2023-02-12T05:29:01.837Z,15.70
2023-02-12T05:30:01.872Z,15.90
2023-02-12T05:31:01.990Z,15.40
2023-02-12T05:32:01.953Z,14.90
2023-02-12T05:33:01.788Z,15.10
2023-02-12T05:34:01.786Z,17.20
2023-02-12T05:35:01.787Z,19.10
2023-02-12T05:36:01.796Z,17.70
2023-02-12T05:37:01.830Z,16.20
2023-02-12T05:38:01.735Z,16.40
2023-02-12T05:39:01.712Z,16.20
2023-02-12T05:40:01.719Z,17.10
2023-02-12T05:41:01.684Z,13.90
2023-02-12T05:42:01.713Z,18.30
2023-02-12T05:43:01.687Z,18.60
2023-02-12T05:44:01.659Z,19.70
2023-02-12T05:45:01.632Z,14.40
2023-02-12T05:46:01.683Z,15.90
2023-02-12T05:47:01.629Z,17.30
2023-02-12T05:48:03.485Z,16.20
2023-02-12T05:49:01.584Z,18.30
2023-02-12T05:50:01.588Z,16.90
2023-02-12T05:51:01.560Z,14.30
2023-02-12T05:52:01.539Z,16.20
2023-02-12T05:53:01.542Z,16.60
2023-02-12T05:54:01.564Z,19.00
2023-02-12T05:55:01.505Z,15.30
2023-02-12T05:56:01.489Z,14.60
2023-02-12T05:57:01.487Z,15.40
2023-02-12T05:58:01.470Z,14.90
2023-02-12T05:59:01.452Z,17.20
2023-02-12T06:00:01.461Z,16.70
2023-02-12T06:01:01.432Z,14.60
2023-02-12T06:02:01.421Z,17.40
2023-02-12T06:03:01.391Z,18.00
2023-02-12T06:04:01.447Z,15.60
2023-02-12T06:05:01.395Z,14.30
2023-02-12T06:06:01.428Z,17.30
2023-02-12T06:07:01.358Z,16.30
2023-02-12T06:08:01.322Z,18.50
2023-02-12T06:09:01.343Z,18.10
2023-02-12T06:10:01.347Z,14.70
2023-02-12T06:11:01.294Z,15.40
2023-02-12T06:12:01.281Z,22.00
2023-02-12T06:13:01.248Z,15.70
2023-02-12T06:14:01.228Z,16.00
2023-02-12T06:15:01.230Z,16.60
2023-02-12T06:16:01.387Z,16.60
2023-02-12T06:17:01.234Z,16.00
2023-02-12T06:18:01.211Z,15.10
2023-02-12T06:19:01.175Z,17.10
2023-02-12T06:20:01.180Z,16.50
2023-02-12T06:21:01.165Z,17.30
2023-02-12T06:22:01.224Z,18.80
2023-02-12T06:23:01.122Z,16.70
2023-02-12T06:24:01.127Z,19.40
2023-02-12T06:25:01.118Z,18.60
2023-02-12T06:26:01.097Z,18.70
2023-02-12T06:27:01.070Z,18.80
2023-02-12T06:28:01.087Z,16.80
2023-02-12T06:29:01.049Z,18.90
2023-02-12T06:30:01.040Z,17.20
2023-02-12T06:31:01.186Z,20.00
2023-02-12T06:32:01.174Z,17.70
2023-02-12T06:33:01.008Z,17.10
2023-02-12T06:34:01.013Z,18.80
2023-02-12T06:35:00.968Z,21.30
2023-02-12T06:36:01.004Z,17.30
2023-02-12T06:37:00.948Z,16.90
2023-02-12T06:38:00.927Z,19.40
2023-02-12T06:39:00.967Z,17.20
2023-02-12T06:40:00.901Z,18.90
2023-02-12T06:41:00.957Z,18.80
2023-02-12T06:42:00.926Z,16.80
2023-02-12T06:43:00.923Z,18.50
2023-02-12T06:44:00.864Z,19.20
2023-02-12T06:45:00.874Z,19.80
2023-02-12T06:46:00.841Z,17.40
2023-02-12T06:47:00.914Z,17.10
2023-02-12T06:48:00.858Z,16.70
2023-02-12T06:49:00.783Z,16.60
2023-02-12T06:50:00.772Z,16.60
2023-02-12T06:51:00.753Z,19.60
2023-02-12T06:52:03.218Z,20.70
2023-02-12T06:53:00.762Z,18.20
2023-02-12T06:54:00.752Z,18.70
2023-02-12T06:55:00.773Z,17.60
2023-02-12T06:56:00.693Z,18.70
2023-02-12T06:57:00.692Z,20.30
2023-02-12T06:58:00.673Z,17.50
2023-02-12T06:59:00.682Z,17.50
2023-02-12T07:00:00.676Z,17.00
2023-02-12T07:01:00.635Z,16.80
2023-02-12T07:02:00.675Z,17.40
2023-02-12T07:03:00.608Z,18.00
2023-02-12T07:04:00.652Z,18.80
2023-02-12T07:05:00.613Z,18.00
2023-02-12T07:06:00.579Z,18.90
2023-02-12T07:07:00.551Z,19.40
2023-02-12T07:08:00.569Z,17.00
2023-02-12T07:09:00.678Z,17.40
2023-02-12T07:10:00.517Z,22.10
2023-02-12T07:11:00.512Z,18.60
2023-02-12T07:12:00.505Z,18.80
2023-02-12T07:13:00.472Z,19.80
2023-02-12T07:14:00.455Z,20.20
2023-02-12T07:15:00.442Z,18.50
2023-02-12T07:16:00.524Z,19.50
2023-02-12T07:17:00.419Z,18.60
2023-02-12T07:18:00.430Z,17.60
2023-02-12T07:19:00.431Z,18.70
2023-02-12T07:20:00.380Z,20.20
2023-02-12T07:21:00.354Z,18.80
2023-02-12T07:22:00.349Z,19.60
2023-02-12T07:23:00.332Z,21.40
2023-02-12T07:24:00.368Z,19.00
2023-02-12T07:25:00.316Z,19.80
2023-02-12T07:26:00.283Z,18.40
2023-02-12T07:27:00.286Z,19.90
2023-02-12T07:28:00.306Z,18.70
2023-02-12T07:29:00.260Z,18.50
2023-02-12T07:30:00.284Z,19.30
2023-02-12T07:31:00.280Z,18.80
2023-02-12T07:32:00.286Z,20.90
2023-02-12T07:33:00.201Z,17.50
2023-02-12T07:34:00.199Z,21.40
2023-02-12T07:35:00.206Z,19.90
2023-02-12T07:36:00.197Z,20.10
2023-02-12T07:37:00.164Z,17.30
2023-02-12T07:38:00.148Z,19.10
2023-02-12T07:39:00.155Z,20.80
2023-02-12T07:40:00.163Z,17.80
2023-02-12T07:41:00.118Z,18.80
2023-02-12T07:42:00.121Z,17.60
2023-02-12T07:43:00.104Z,18.30
2023-02-12T07:44:00.058Z,17.60
2023-02-12T07:45:00.036Z,18.20
2023-02-12T07:46:00.127Z,17.20
2023-02-12T07:47:00.044Z,18.10
2023-02-12T07:48:00.019Z,20.60
2023-02-12T07:48:59.977Z,18.90
2023-02-12T07:49:59.972Z,20.50
2023-02-12T07:50:59.948Z,19.80
2023-02-12T07:52:00.010Z,20.40
2023-02-12T07:52:59.960Z,19.90
2023-02-12T07:53:59.985Z,20.70
2023-02-12T07:54:59.916Z,18.10
2023-02-12T07:55:59.893Z,18.80
2023-02-12T07:56:59.894Z,20.40
2023-02-12T07:57:59.881Z,19.00
2023-02-12T07:58:59.880Z,18.30
2023-02-12T07:59:59.857Z,21.10
2023-02-12T08:00:59.837Z,17.90
2023-02-12T08:01:59.840Z,19.40
2023-02-12T08:02:59.804Z,18.50
2023-02-12T08:03:59.790Z,18.90
2023-02-12T08:04:59.773Z,19.40
2023-02-12T08:05:59.810Z,20.30
2023-02-12T08:06:59.750Z,17.80
2023-02-12T08:07:59.728Z,19.60
2023-02-12T08:08:59.739Z,19.40
2023-02-12T08:09:59.765Z,17.50
2023-02-12T08:10:59.699Z,17.60
2023-02-12T08:11:59.708Z,22.30
2023-02-12T08:12:59.684Z,16.30
2023-02-12T08:13:59.648Z,18.50
2023-02-12T08:14:59.735Z,18.50
2023-02-12T08:15:59.666Z,18.50
2023-02-12T08:16:59.638Z,17.20
2023-02-12T08:17:59.615Z,16.60
2023-02-12T08:19:14.630Z,17.20
2023-02-12T08:20:00.609Z,17.60
2023-02-12T08:20:59.581Z,17.20
2023-02-12T08:21:59.530Z,17.70
2023-02-12T08:22:59.523Z,15.50
2023-02-12T08:23:59.540Z,15.40
2023-02-12T08:24:59.521Z,15.10
2023-02-12T08:25:59.517Z,14.30
2023-02-12T08:26:59.553Z,16.00
2023-02-12T08:27:59.477Z,16.30
2023-02-12T08:28:59.461Z,15.80
2023-02-12T08:29:59.496Z,16.00
2023-02-12T08:30:59.477Z,12.50
2023-02-12T08:31:59.707Z,14.80
2023-02-12T08:32:59.407Z,14.50
2023-02-12T08:33:59.388Z,12.80
2023-02-12T08:34:59.378Z,13.10
2023-02-12T08:36:00.037Z,15.60
2023-02-12T08:36:59.396Z,15.20
2023-02-12T08:37:59.354Z,16.30
2023-02-12T08:38:59.331Z,13.90
2023-02-12T08:39:59.408Z,17.70
2023-02-12T08:40:59.328Z,18.00
2023-02-12T08:41:59.304Z,14.90
2023-02-12T08:42:59.308Z,13.70
2023-02-12T08:43:59.281Z,18.70
2023-02-12T08:44:59.249Z,13.80
2023-02-12T08:45:59.273Z,13.20
2023-02-12T08:46:59.212Z,14.80
2023-02-12T08:47:59.250Z,15.10
2023-02-12T08:48:59.309Z,14.80
2023-02-12T08:49:59.345Z,13.40
2023-02-12T08:50:59.338Z,15.10
2023-02-12T08:51:59.150Z,14.00
2023-02-12T08:52:59.140Z,13.80
2023-02-12T08:53:59.260Z,14.00
2023-02-12T08:54:59.133Z,13.60
2023-02-12T08:55:59.211Z,13.50
2023-02-12T08:57:00.926Z,14.00
2023-02-12T08:58:00.115Z,12.90
2023-02-12T08:58:59.230Z,14.80
2023-02-12T08:59:59.254Z,16.60
2023-02-12T09:00:59.080Z,14.10
2023-02-12T09:01:59.045Z,14.70
2023-02-12T09:02:59.000Z,14.70
2023-02-12T09:03:58.994Z,13.50
2023-02-12T09:04:58.966Z,12.50
2023-02-12T09:05:59.056Z,14.10
2023-02-12T09:06:58.935Z,13.20
2023-02-12T09:07:58.930Z,14.00
2023-02-12T09:08:59.013Z,12.80
2023-02-12T09:09:58.906Z,14.10
2023-02-12T09:10:58.927Z,14.10
2023-02-12T09:11:58.904Z,12.90
2023-02-12T09:12:58.866Z,12.90
2023-02-12T09:13:58.846Z,12.40
2023-02-12T09:14:58.860Z,13.20
2023-02-12T09:15:59.133Z,13.10
2023-02-12T09:16:58.880Z,14.70
2023-02-12T09:17:58.797Z,13.90
2023-02-12T09:18:58.771Z,13.40
2023-02-12T09:19:58.782Z,12.00
2023-02-12T09:20:58.776Z,11.80
2023-02-12T09:21:58.818Z,14.70
2023-02-12T09:22:58.783Z,13.90
2023-02-12T09:23:58.743Z,11.20
2023-02-12T09:24:58.697Z,11.90
2023-02-12T09:25:58.947Z,13.30
2023-02-12T09:26:58.698Z,12.00
2023-02-12T09:27:58.732Z,12.00
2023-02-12T09:28:58.659Z,13.30
2023-02-12T09:29:58.684Z,12.10
2023-02-12T09:30:58.682Z,12.10
2023-02-12T09:31:58.713Z,11.20
2023-02-12T09:32:58.629Z,14.00
2023-02-12T09:33:58.582Z,12.90
2023-02-12T09:34:58.568Z,13.50
2023-02-12T09:35:58.587Z,14.70
2023-02-12T09:36:58.557Z,13.40
2023-02-12T09:37:58.544Z,12.50
2023-02-12T09:38:58.519Z,11.70
2023-02-12T09:39:58.511Z,13.80
2023-02-12T09:40:58.524Z,14.20
2023-02-12T09:41:58.532Z,13.10
2023-02-12T09:42:58.470Z,13.30
2023-02-12T09:43:58.448Z,14.90
2023-02-12T09:44:58.427Z,13.70
2023-02-12T09:45:58.954Z,14.40
2023-02-12T09:46:58.427Z,13.20
2023-02-12T09:47:58.424Z,13.40
2023-02-12T09:48:58.504Z,11.60
2023-02-12T09:49:58.394Z,15.80
2023-02-12T09:50:58.380Z,15.20
2023-02-12T09:51:58.360Z,13.20
2023-02-12T09:52:58.444Z,13.50
2023-02-12T09:53:58.365Z,14.00
2023-02-12T09:54:58.344Z,15.60
2023-02-12T09:55:58.578Z,16.00
2023-02-12T09:56:58.286Z,13.20
2023-02-12T09:57:58.272Z,15.80
2023-02-12T09:58:58.451Z,12.60
2023-02-12T09:59:58.272Z,14.70
2023-02-12T10:00:58.237Z,15.60
2023-02-12T10:01:58.259Z,13.80
2023-02-12T10:02:58.199Z,12.70
2023-02-12T10:03:58.280Z,13.30
2023-02-12T10:05:01.985Z,15.70
2023-02-12T10:05:58.514Z,16.60
2023-02-12T10:06:58.170Z,17.30
2023-02-12T10:07:58.145Z,14.90
2023-02-12T10:08:58.147Z,14.80
2023-02-12T10:09:58.142Z,13.90
2023-02-12T10:10:58.141Z,15.50
2023-02-12T10:11:58.101Z,13.30
2023-02-12T10:12:58.125Z,15.30
2023-02-12T10:13:58.176Z,14.50
2023-02-12T10:14:58.049Z,12.60
2023-02-12T10:15:58.427Z,13.30
2023-02-12T10:16:58.023Z,13.20
2023-02-12T10:17:58.142Z,16.30
2023-02-12T10:18:57.999Z,15.30
2023-02-12T10:19:57.983Z,16.80
2023-02-12T10:20:58.387Z,14.90
2023-02-12T10:21:57.982Z,15.90
2023-02-12T10:22:58.125Z,14.70
2023-02-12T10:23:57.942Z,15.70
2023-02-12T10:24:57.922Z,14.00
2023-02-12T10:25:58.211Z,13.40
2023-02-12T10:26:57.945Z,16.30
2023-02-12T10:27:57.960Z,15.50
2023-02-12T10:28:57.860Z,14.10
2023-02-12T10:29:57.855Z,12.90
2023-02-12T10:30:57.986Z,15.00
2023-02-12T10:31:58.790Z,14.80
2023-02-12T10:32:57.802Z,13.90
2023-02-12T10:33:57.806Z,13.40
2023-02-12T10:34:57.787Z,13.90
2023-02-12T10:35:58.166Z,14.10
2023-02-12T10:36:57.789Z,11.90
2023-02-12T10:37:57.775Z,16.60
2023-02-12T10:38:57.726Z,13.10
2023-02-12T10:39:57.709Z,14.70
2023-02-12T10:40:57.704Z,13.20
2023-02-12T10:41:57.738Z,16.10
2023-02-12T10:42:57.713Z,14.90
2023-02-12T10:43:57.649Z,13.90
2023-02-12T10:44:57.638Z,17.50
2023-02-12T10:45:58.118Z,14.90
2023-02-12T10:46:57.609Z,13.20
2023-02-12T10:47:57.669Z,11.50
2023-02-12T10:48:57.584Z,12.50
2023-02-12T10:49:57.580Z,11.80
2023-02-12T10:50:57.558Z,14.00
2023-02-12T10:51:57.553Z,11.70
2023-02-12T10:52:57.541Z,11.00
2023-02-12T10:53:57.572Z,9.00
2023-02-12T10:54:57.546Z,12.40
2023-02-12T10:55:57.811Z,13.40
2023-02-12T10:56:57.484Z,11.20
2023-02-12T10:57:57.495Z,12.30
2023-02-12T10:58:57.455Z,12.00
2023-02-12T10:59:57.497Z,10.80
2023-02-12T11:00:57.448Z,11.50
2023-02-12T11:01:57.446Z,12.20
2023-02-12T11:02:57.442Z,10.40
2023-02-12T11:03:57.399Z,10.30
2023-02-12T11:04:57.453Z,9.80
2023-02-12T11:05:57.730Z,11.10
2023-02-12T11:06:57.345Z,9.30
2023-02-12T11:07:57.719Z,9.80
2023-02-12T11:08:57.334Z,9.20
2023-02-12T11:09:57.336Z,8.70
2023-02-12T11:10:57.285Z,6.60
2023-02-12T11:11:57.287Z,8.40
2023-02-12T11:12:57.276Z,8.00
2023-02-12T11:13:57.276Z,7.40
2023-02-12T11:14:57.287Z,7.00
2023-02-12T11:15:57.402Z,7.40
2023-02-12T11:16:57.238Z,7.40
2023-02-12T11:17:57.217Z,7.10
2023-02-12T11:18:57.177Z,7.80
2023-02-12T11:19:57.202Z,7.80
2023-02-12T11:20:57.190Z,7.60
2023-02-12T11:21:57.142Z,6.90
2023-02-12T11:22:57.439Z,8.80
2023-02-12T11:23:57.137Z,9.50
2023-02-12T11:25:01.207Z,6.40
2023-02-12T11:25:57.471Z,8.20
2023-02-12T11:26:57.075Z,7.50
2023-02-12T11:27:57.073Z,6.20
2023-02-12T11:28:57.131Z,8.30
2023-02-12T11:29:57.084Z,7.90
2023-02-12T11:30:57.278Z,6.20
2023-02-12T11:31:57.074Z,8.80
2023-02-12T11:32:57.609Z,7.30
2023-02-12T11:33:56.966Z,7.50
2023-02-12T11:34:57.228Z,8.20
2023-02-12T11:35:58.257Z,6.90
2023-02-12T11:36:57.023Z,8.00
2023-02-12T11:37:56.924Z,8.50
2023-02-12T11:38:56.898Z,6.40
2023-02-12T11:39:56.934Z,6.00
2023-02-12T11:40:57.184Z,4.20
2023-02-12T11:41:56.911Z,4.90
2023-02-12T11:42:56.858Z,4.40
2023-02-12T11:43:56.840Z,4.30
2023-02-12T11:44:56.850Z,5.50
2023-02-12T11:45:56.831Z,4.90
2023-02-12T11:46:56.842Z,5.10
2023-02-12T11:47:56.804Z,5.60
2023-02-12T11:48:56.827Z,5.30
2023-02-12T11:49:56.784Z,5.50
2023-02-12T11:50:56.868Z,4.50
2023-02-12T11:51:56.734Z,3.70
2023-02-12T11:52:56.744Z,5.60
2023-02-12T11:53:56.742Z,4.70
2023-02-12T11:54:56.717Z,5.60
2023-02-12T11:55:56.752Z,5.10
2023-02-12T11:56:56.695Z,5.40
2023-02-12T11:57:56.663Z,5.60
2023-02-12T11:58:56.673Z,6.30
2023-02-12T11:59:56.723Z,5.10
2023-02-12T12:00:56.674Z,8.10
2023-02-12T12:01:56.610Z,5.80
2023-02-12T12:02:56.635Z,4.70
2023-02-12T12:03:56.606Z,7.50
2023-02-12T12:04:56.645Z,6.20
2023-02-12T12:05:56.900Z,6.90
2023-02-12T12:06:56.557Z,6.90
2023-02-12T12:07:56.538Z,5.70
2023-02-12T12:08:56.512Z,5.40
2023-02-12T12:09:56.530Z,5.80
2023-02-12T12:10:56.509Z,6.60
2023-02-12T12:11:56.514Z,6.00
2023-02-12T12:12:56.487Z,9.10
2023-02-12T12:13:56.453Z,6.10
2023-02-12T12:14:56.462Z,6.20
2023-02-12T12:15:56.796Z,6.50
2023-02-12T12:16:56.398Z,8.80
2023-02-12T12:17:56.407Z,5.30
2023-02-12T12:18:56.401Z,5.40
2023-02-12T12:19:56.376Z,5.00
2023-02-12T12:20:56.395Z,4.40
2023-02-12T12:21:56.336Z,4.20
2023-02-12T12:22:56.335Z,4.00
2023-02-12T12:23:56.331Z,5.00
2023-02-12T12:24:56.290Z,4.90
2023-02-12T12:25:56.607Z,3.90
2023-02-12T12:26:56.281Z,3.80
2023-02-12T12:27:56.254Z,5.50
2023-02-12T12:28:56.245Z,9.40
2023-02-12T12:29:56.265Z,7.40
2023-02-12T12:30:56.228Z,6.40
2023-02-12T12:31:56.308Z,4.90
2023-02-12T12:32:56.204Z,4.90
2023-02-12T12:33:56.178Z,5.00
2023-02-12T12:34:56.168Z,4.10
2023-02-12T12:35:56.512Z,4.80
2023-02-12T12:36:56.196Z,5.20
2023-02-12T12:37:56.165Z,5.10
2023-02-12T12:38:56.103Z,6.90
2023-02-12T12:39:56.116Z,4.80
2023-02-12T12:40:56.079Z,5.00
2023-02-12T12:41:56.080Z,3.90
2023-02-12T12:42:56.064Z,5.60
2023-02-12T12:43:56.038Z,4.80
2023-02-12T12:44:56.102Z,6.00
2023-02-12T12:45:56.415Z,4.40
2023-02-12T12:46:56.025Z,5.50
2023-02-12T12:47:56.030Z,4.50
2023-02-12T12:48:56.026Z,5.50
2023-02-12T12:49:55.998Z,5.60
2023-02-12T12:50:55.957Z,5.50
2023-02-12T12:51:55.961Z,4.80
2023-02-12T12:52:55.940Z,4.40
2023-02-12T12:53:55.957Z,5.70
2023-02-12T12:54:55.922Z,5.60
2023-02-12T12:55:56.158Z,6.00